createdAt,value
2023-04-15T00:00:00.953Z,83.63
2023-04-15T00:01:00.974Z,83.73
2023-04-15T00:02:01.060Z,83.84
2023-04-15T00:03:01.031Z,83.73
2023-04-15T00:04:00.980Z,83.73
2023-04-15T00:05:00.934Z,84.05
2023-04-15T00:06:00.879Z,84.15
2023-04-15T00:07:00.870Z,84.15
2023-04-15T00:08:00.881Z,84.25
2023-04-15T00:09:01.356Z,84.15
2023-04-15T00:10:00.860Z,84.25
2023-04-15T00:11:00.861Z,84.25
2023-04-15T00:12:00.848Z,84.36
2023-04-15T00:13:00.845Z,84.25
2023-04-15T00:14:00.813Z,83.94
2023-04-15T00:15:00.818Z,83.94
2023-04-15T00:16:00.797Z,84.05
2023-04-15T00:17:00.881Z,83.73
2023-04-15T00:18:00.800Z,83.63
2023-04-15T00:19:00.992Z,83.84
2023-04-15T00:20:00.731Z,84.25
2023-04-15T00:21:00.743Z,84.45
2023-04-15T00:22:00.761Z,84.66
2023-04-15T00:23:00.726Z,84.66
2023-04-15T00:24:00.738Z,84.56
2023-04-15T00:25:00.720Z,84.56
2023-04-15T00:26:00.699Z,84.56
2023-04-15T00:27:00.702Z,84.45
2023-04-15T00:28:00.666Z,84.36
2023-04-15T00:29:00.862Z,84.45
2023-04-15T00:30:00.637Z,84.66
2023-04-15T00:31:00.672Z,84.36
2023-04-15T00:32:00.624Z,84.45
2023-04-15T00:33:00.682Z,84.56
2023-04-15T00:34:00.610Z,84.56
2023-04-15T00:35:00.589Z,84.66
2023-04-15T00:36:00.601Z,84.66
2023-04-15T00:37:00.598Z,84.77
2023-04-15T00:38:00.618Z,84.97
2023-04-15T00:39:00.851Z,85.08
2023-04-15T00:40:00.574Z,84.81
2023-04-15T00:41:00.562Z,84.29
2023-04-15T00:42:00.536Z,84.50
2023-04-15T00:43:00.533Z,84.70
2023-04-15T00:44:00.536Z,84.91
2023-04-15T00:45:00.525Z,85.11
2023-04-15T00:46:00.569Z,85.02
2023-04-15T00:47:00.467Z,84.70
2023-04-15T00:48:00.606Z,84.81
2023-04-15T00:49:00.702Z,84.81
2023-04-15T00:50:00.495Z,84.70
2023-04-15T00:51:00.437Z,84.70
2023-04-15T00:52:00.435Z,84.91
2023-04-15T00:53:00.461Z,84.91
2023-04-15T00:54:00.427Z,85.11
2023-04-15T00:55:00.445Z,85.53
2023-04-15T00:56:00.390Z,85.63
2023-04-15T00:57:00.385Z,85.63
2023-04-15T00:58:00.372Z,85.74
2023-04-15T00:59:00.594Z,85.63
2023-04-15T01:00:00.414Z,85.63
2023-04-15T01:01:00.426Z,85.53
2023-04-15T01:02:00.476Z,85.42
2023-04-15T01:03:00.691Z,85.42
2023-04-15T01:04:00.513Z,85.42
2023-04-15T01:05:00.308Z,85.11
2023-04-15T01:06:02.113Z,85.02
2023-04-15T01:07:00.322Z,84.91
2023-04-15T01:08:00.257Z,85.02
2023-04-15T01:09:00.513Z,85.02
2023-04-15T01:11:27.808Z,85.11
2023-04-15T01:11:33.177Z,85.53
2023-04-15T01:12:33.214Z,85.63
2023-04-15T01:13:33.138Z,85.63
2023-04-15T01:14:33.123Z,85.63
2023-04-15T01:15:33.104Z,85.74
2023-04-15T01:16:33.119Z,85.84
2023-04-15T01:17:33.113Z,85.74
2023-04-15T01:18:33.094Z,85.63
2023-04-15T01:19:33.068Z,85.63
2023-04-15T01:20:33.064Z,85.63
2023-04-15T01:21:33.055Z,85.63
2023-04-15T01:22:33.039Z,85.53
2023-04-15T01:23:33.075Z,85.53
2023-04-15T01:24:33.036Z,85.53
2023-04-15T01:25:33.036Z,85.63
2023-04-15T01:26:33.006Z,85.63
2023-04-15T01:27:33.012Z,85.53
2023-04-15T01:28:33.030Z,85.63
2023-04-15T01:29:32.983Z,85.53
2023-04-15T01:30:32.988Z,85.53
2023-04-15T01:31:32.993Z,85.53
2023-04-15T01:32:32.995Z,85.57
2023-04-15T01:33:32.951Z,85.57
2023-04-15T01:34:35.522Z,85.47
2023-04-15T01:35:32.939Z,85.57
2023-04-15T01:36:32.902Z,85.57
2023-04-15T01:37:32.879Z,85.57
2023-04-15T01:38:32.886Z,85.68
2023-04-15T01:39:32.946Z,85.68
2023-04-15T01:40:32.875Z,85.78
2023-04-15T01:41:32.869Z,85.78
2023-04-15T01:42:32.869Z,85.88
2023-04-15T01:43:32.850Z,85.78
2023-04-15T01:44:32.871Z,85.68
2023-04-15T01:45:32.835Z,85.78
2023-04-15T01:46:32.836Z,85.88
2023-04-15T01:47:32.801Z,85.99
2023-04-15T01:48:32.789Z,86.09
2023-04-15T01:49:32.767Z,85.99
2023-04-15T01:50:32.794Z,85.88
2023-04-15T01:51:32.765Z,86.09
2023-04-15T01:52:32.749Z,85.78
2023-04-15T01:53:32.726Z,85.36
2023-04-15T01:54:32.729Z,85.71
2023-04-15T01:55:32.731Z,85.92
2023-04-15T01:56:32.762Z,86.02
2023-04-15T01:57:32.719Z,86.23
2023-04-15T01:58:32.710Z,86.33
2023-04-15T01:59:32.675Z,86.54
2023-04-15T02:00:32.739Z,86.75
2023-04-15T02:01:32.698Z,86.75
2023-04-15T02:02:32.740Z,86.75
2023-04-15T02:03:32.746Z,86.65
2023-04-15T02:04:32.636Z,86.65
2023-04-15T02:05:32.625Z,86.85
2023-04-15T02:06:32.635Z,86.96
2023-04-15T02:07:32.612Z,86.96
2023-04-15T02:08:32.639Z,86.96
2023-04-15T02:09:32.596Z,86.96
2023-04-15T02:10:32.600Z,86.96
2023-04-15T02:11:32.559Z,87.06
2023-04-15T02:12:32.554Z,87.16
2023-04-15T02:13:32.576Z,87.16
2023-04-15T02:14:32.553Z,87.16
2023-04-15T02:15:32.508Z,87.16
2023-04-15T02:16:32.555Z,87.06
2023-04-15T02:17:32.521Z,87.02
2023-04-15T02:18:32.492Z,86.91
2023-04-15T02:19:32.508Z,86.91
2023-04-15T02:20:32.515Z,86.81
2023-04-15T02:21:32.456Z,86.81
2023-04-15T02:22:32.466Z,86.81
2023-04-15T02:23:32.466Z,86.81
2023-04-15T02:24:32.453Z,86.81
2023-04-15T02:25:32.427Z,86.91
2023-04-15T02:26:32.446Z,86.91
2023-04-15T02:27:32.393Z,86.81
2023-04-15T02:28:32.387Z,86.71
2023-04-15T02:29:32.395Z,86.81
2023-04-15T02:30:32.394Z,86.81
2023-04-15T02:31:32.410Z,86.81
2023-04-15T02:32:32.374Z,86.81
2023-04-15T02:33:32.368Z,86.71
2023-04-15T02:34:32.343Z,86.71
2023-04-15T02:35:32.328Z,86.71
2023-04-15T02:36:32.316Z,86.60
2023-04-15T02:37:32.294Z,86.50
2023-04-15T02:38:32.291Z,86.29
2023-04-15T02:39:32.266Z,86.29
2023-04-15T02:40:32.299Z,86.40
2023-04-15T02:41:32.268Z,86.50
2023-04-15T02:42:32.246Z,86.60
2023-04-15T02:43:32.236Z,86.50
2023-04-15T02:44:32.250Z,86.40
2023-04-15T02:45:32.231Z,86.40
2023-04-15T02:46:32.332Z,86.50
2023-04-15T02:47:32.205Z,86.71
2023-04-15T02:48:32.198Z,86.81
2023-04-15T02:49:32.193Z,86.60
2023-04-15T02:50:32.181Z,86.50
2023-04-15T02:51:32.172Z,86.50
2023-04-15T02:52:32.160Z,86.50
2023-04-15T02:53:32.139Z,86.60
2023-04-15T02:54:32.130Z,86.60
2023-04-15T02:55:32.106Z,86.60
2023-04-15T02:56:32.112Z,86.91
2023-04-15T02:57:32.131Z,87.27
2023-04-15T02:58:32.095Z,87.57
2023-04-15T02:59:32.094Z,87.68
2023-04-15T03:00:32.072Z,87.88
2023-04-15T03:01:32.095Z,88.09
2023-04-15T03:02:32.144Z,88.34
2023-04-15T03:03:32.153Z,88.55
2023-04-15T03:04:32.031Z,88.76
2023-04-15T03:05:32.017Z,88.86
2023-04-15T03:06:31.998Z,88.96
2023-04-15T03:07:32.019Z,88.96
2023-04-15T03:08:31.986Z,89.07
2023-04-15T03:09:31.991Z,89.07
2023-04-15T03:10:31.981Z,88.96
2023-04-15T03:11:31.951Z,88.76
2023-04-15T03:12:31.955Z,88.51
2023-04-15T03:13:31.977Z,88.30
2023-04-15T03:14:31.953Z,88.20
2023-04-15T03:15:31.934Z,88.20
2023-04-15T03:16:31.892Z,88.20
2023-04-15T03:17:31.931Z,88.30
2023-04-15T03:18:31.888Z,88.45
2023-04-15T03:19:31.916Z,88.55
2023-04-15T03:20:31.944Z,88.76
2023-04-15T03:21:31.848Z,88.86
2023-04-15T03:22:31.839Z,88.96
2023-04-15T03:23:31.833Z,88.86
2023-04-15T03:24:31.831Z,88.96
2023-04-15T03:25:31.859Z,88.96
2023-04-15T03:26:31.814Z,89.07
2023-04-15T03:27:31.822Z,89.17
2023-04-15T03:28:31.800Z,89.17
2023-04-15T03:29:31.789Z,89.17
2023-04-15T03:30:31.777Z,89.17
2023-04-15T03:31:31.830Z,89.07
2023-04-15T03:32:31.794Z,88.96
2023-04-15T03:33:31.748Z,88.96
2023-04-15T03:34:31.716Z,88.96
2023-04-15T03:35:31.727Z,88.96
2023-04-15T03:36:31.716Z,88.86
2023-04-15T03:37:31.723Z,88.82
2023-04-15T03:38:31.687Z,88.61
2023-04-15T03:39:31.678Z,88.51
2023-04-15T03:40:31.672Z,88.55
2023-04-15T03:41:31.671Z,88.51
2023-04-15T03:42:31.681Z,88.51
2023-04-15T03:43:31.630Z,88.51
2023-04-15T03:44:31.613Z,88.51
2023-04-15T03:45:31.620Z,88.40
2023-04-15T03:46:31.637Z,88.40
2023-04-15T03:47:31.585Z,88.30
2023-04-15T03:48:31.610Z,88.20
2023-04-15T03:49:31.589Z,88.30
2023-04-15T03:50:31.579Z,88.40
2023-04-15T03:51:31.578Z,88.40
2023-04-15T03:52:31.570Z,88.40
2023-04-15T03:53:31.583Z,88.51
2023-04-15T03:54:31.533Z,88.51
2023-04-15T03:55:31.523Z,88.51
2023-04-15T03:56:31.507Z,88.51
2023-04-15T03:57:31.537Z,88.51
2023-04-15T03:58:31.482Z,88.51
2023-04-15T03:59:31.504Z,88.51
2023-04-15T04:00:31.466Z,88.51
2023-04-15T04:01:31.489Z,88.51
2023-04-15T04:02:31.595Z,88.40
2023-04-15T04:03:31.491Z,88.40
2023-04-15T04:04:31.580Z,88.30
2023-04-15T04:05:31.431Z,88.20
2023-04-15T04:06:31.416Z,88.30
2023-04-15T04:07:31.394Z,88.51
2023-04-15T04:08:31.379Z,88.61
2023-04-15T04:09:31.384Z,88.61
2023-04-15T04:10:31.415Z,88.71
2023-04-15T04:11:31.353Z,88.61
2023-04-15T04:12:31.351Z,88.71
2023-04-15T04:13:31.331Z,88.71
2023-04-15T04:14:31.316Z,88.71
2023-04-15T04:15:31.380Z,88.71
2023-04-15T04:16:31.346Z,88.82
2023-04-15T04:17:31.325Z,88.92
2023-04-15T04:18:31.271Z,89.03
2023-04-15T04:19:31.286Z,89.03
2023-04-15T04:20:31.264Z,89.03
2023-04-15T04:21:31.256Z,89.03
2023-04-15T04:22:31.638Z,89.03
2023-04-15T04:23:31.246Z,89.03
2023-04-15T04:24:31.242Z,89.03
2023-04-15T04:25:31.219Z,89.13
2023-04-15T04:26:31.224Z,89.03
2023-04-15T04:27:31.179Z,89.03
2023-04-15T04:28:31.234Z,89.03
2023-04-15T04:29:31.169Z,88.92
2023-04-15T04:30:31.175Z,88.92
2023-04-15T04:31:31.175Z,88.82
2023-04-15T04:32:31.155Z,88.82
2023-04-15T04:33:31.146Z,88.71
2023-04-15T04:34:31.162Z,88.71
2023-04-15T04:35:31.119Z,88.71
2023-04-15T04:36:31.109Z,88.61
2023-04-15T04:37:31.085Z,88.51
2023-04-15T04:38:31.100Z,88.40
2023-04-15T04:39:31.114Z,88.30
2023-04-15T04:40:31.109Z,88.20
2023-04-15T04:41:31.048Z,88.20
2023-04-15T04:42:31.052Z,88.20
2023-04-15T04:43:31.014Z,88.20
2023-04-15T04:44:31.046Z,88.06
2023-04-15T04:45:31.038Z,87.95
2023-04-15T04:46:31.011Z,87.95
2023-04-15T04:47:30.986Z,87.95
2023-04-15T04:48:30.986Z,87.95
2023-04-15T04:49:31.005Z,87.95
2023-04-15T04:50:30.962Z,87.85
2023-04-15T04:51:30.969Z,87.74
2023-04-15T04:52:30.951Z,87.74
2023-04-15T04:53:30.939Z,87.74
2023-04-15T04:54:30.927Z,87.74
2023-04-15T04:55:30.960Z,87.64
2023-04-15T04:56:30.902Z,87.64
2023-04-15T04:57:30.894Z,87.74
2023-04-15T04:58:30.886Z,87.95
2023-04-15T04:59:30.855Z,88.16
2023-04-15T05:00:30.867Z,87.95
2023-04-15T05:01:30.867Z,87.85
2023-04-15T05:02:30.898Z,87.85
2023-04-15T05:03:30.947Z,87.85
2023-04-15T05:04:30.853Z,87.64
2023-04-15T05:05:30.794Z,87.74
2023-04-15T05:06:30.825Z,87.85
2023-04-15T05:07:30.807Z,88.06
2023-04-15T05:08:30.794Z,88.06
2023-04-15T05:09:30.776Z,88.16
2023-04-15T05:10:30.777Z,88.26
2023-04-15T05:11:30.777Z,88.26
2023-04-15T05:12:30.747Z,88.16
2023-04-15T05:13:30.732Z,88.16
2023-04-15T05:14:30.712Z,88.26
2023-04-15T05:15:30.750Z,88.16
2023-04-15T05:16:30.723Z,87.95
2023-04-15T05:17:30.790Z,87.95
2023-04-15T05:18:30.691Z,87.85
2023-04-15T05:19:30.677Z,87.74
2023-04-15T05:20:30.670Z,87.74
2023-04-15T05:21:30.646Z,87.70
2023-04-15T05:22:30.656Z,87.70
2023-04-15T05:23:30.643Z,87.81
2023-04-15T05:24:30.642Z,87.81
2023-04-15T05:25:30.598Z,87.81
2023-04-15T05:26:30.601Z,87.81
2023-04-15T05:27:30.584Z,87.81
2023-04-15T05:28:30.633Z,87.91
2023-04-15T05:29:30.584Z,88.01
2023-04-15T05:30:30.556Z,87.91
2023-04-15T05:31:30.620Z,88.12
2023-04-15T05:32:30.580Z,88.18
2023-04-15T05:33:30.542Z,88.59
2023-04-15T05:34:30.547Z,88.70
2023-04-15T05:35:30.511Z,88.59
2023-04-15T05:36:30.503Z,88.59
2023-04-15T05:37:30.495Z,88.59
2023-04-15T05:38:30.484Z,88.39
2023-04-15T05:39:30.513Z,88.59
2023-04-15T05:40:30.465Z,88.80
2023-04-15T05:41:30.608Z,88.80
2023-04-15T05:42:30.466Z,88.90
2023-04-15T05:43:30.461Z,88.90
2023-04-15T05:44:30.429Z,89.11
2023-04-15T05:45:30.409Z,89.36
2023-04-15T05:46:30.420Z,89.67
2023-04-15T05:47:30.451Z,89.87
2023-04-15T05:48:30.384Z,89.87
2023-04-15T05:49:30.416Z,90.08
2023-04-15T05:50:30.378Z,90.29
2023-04-15T05:51:30.364Z,90.60
2023-04-15T05:52:30.342Z,90.70
2023-04-15T05:53:30.336Z,91.01
2023-04-15T05:54:30.349Z,91.22
2023-04-15T05:55:30.310Z,91.11
2023-04-15T05:56:30.284Z,90.91
2023-04-15T05:57:30.295Z,90.60
2023-04-15T05:58:30.283Z,90.70
2023-04-15T05:59:30.294Z,90.80
2023-04-15T06:00:30.291Z,90.70
2023-04-15T06:01:30.269Z,90.80
2023-04-15T06:02:30.263Z,90.91
2023-04-15T06:03:30.323Z,91.01
2023-04-15T06:04:30.390Z,91.01
2023-04-15T06:05:30.244Z,91.01
2023-04-15T06:06:30.214Z,90.87
2023-04-15T06:07:30.200Z,90.25
2023-04-15T06:08:30.193Z,90.04
2023-04-15T06:09:30.187Z,89.83
2023-04-15T06:10:30.170Z,89.73
2023-04-15T06:11:30.157Z,89.83
2023-04-15T06:12:30.127Z,89.62
2023-04-15T06:13:30.118Z,89.42
2023-04-15T06:14:30.103Z,89.73
2023-04-15T06:15:30.109Z,89.83
2023-04-15T06:16:30.149Z,89.52
2023-04-15T06:17:30.124Z,89.32
2023-04-15T06:18:30.083Z,89.28
2023-04-15T06:19:30.062Z,89.17
2023-04-15T06:20:30.064Z,88.96
2023-04-15T06:21:30.080Z,88.76
2023-04-15T06:22:30.034Z,88.45
2023-04-15T06:23:30.032Z,88.14
2023-04-15T06:24:30.016Z,87.93
2023-04-15T06:25:30.048Z,87.79
2023-04-15T06:26:29.991Z,87.68
2023-04-15T06:27:30.608Z,87.58
2023-04-15T06:28:29.976Z,87.27
2023-04-15T06:29:29.970Z,87.27
2023-04-15T06:30:29.973Z,87.27
2023-04-15T06:31:30.025Z,87.37
2023-04-15T06:32:29.979Z,87.27
2023-04-15T06:33:29.953Z,87.23
2023-04-15T06:34:29.916Z,87.02
2023-04-15T06:35:29.944Z,86.71
2023-04-15T06:36:29.894Z,86.61
2023-04-15T06:37:29.875Z,86.51
2023-04-15T06:38:29.892Z,86.51
2023-04-15T06:39:29.860Z,86.51
2023-04-15T06:40:29.841Z,86.41
2023-04-15T06:41:29.849Z,86.41
2023-04-15T06:42:29.832Z,86.41
2023-04-15T06:43:29.870Z,86.51
2023-04-15T06:44:30.787Z,86.51
2023-04-15T06:45:29.860Z,86.61
2023-04-15T06:46:29.866Z,86.41
2023-04-15T06:47:29.833Z,86.41
2023-04-15T06:48:29.783Z,86.41
2023-04-15T06:49:29.763Z,86.30
2023-04-15T06:50:29.754Z,86.16
2023-04-15T06:51:29.755Z,85.95
2023-04-15T06:52:29.769Z,85.85
2023-04-15T06:53:29.724Z,85.75
2023-04-15T06:54:29.701Z,85.85
2023-04-15T06:55:29.705Z,85.85
2023-04-15T06:56:29.671Z,85.85
2023-04-15T06:57:29.709Z,85.75
2023-04-15T06:58:29.686Z,85.54
2023-04-15T06:59:29.666Z,85.54
2023-04-15T07:00:29.668Z,85.85
2023-04-15T07:01:29.805Z,86.16
2023-04-15T07:02:29.783Z,86.26
2023-04-15T07:03:31.448Z,86.36
2023-04-15T07:04:29.700Z,86.16
2023-04-15T07:05:29.588Z,85.91
2023-04-15T07:06:29.601Z,85.71
2023-04-15T07:07:29.603Z,85.50
2023-04-15T07:08:29.561Z,85.30
2023-04-15T07:09:29.609Z,85.30
2023-04-15T07:10:29.537Z,85.39
2023-04-15T07:11:29.551Z,85.50
2023-04-15T07:12:29.533Z,85.60
2023-04-15T07:13:29.546Z,85.71
2023-04-15T07:14:29.531Z,85.60
2023-04-15T07:15:29.498Z,85.60
2023-04-15T07:16:30.039Z,85.71
2023-04-15T07:17:29.532Z,85.91
2023-04-15T07:18:29.468Z,85.91
2023-04-15T07:19:29.504Z,85.91
2023-04-15T07:20:29.459Z,85.91
2023-04-15T07:21:29.445Z,86.08
2023-04-15T07:22:29.456Z,86.08
2023-04-15T07:23:29.502Z,86.08
2023-04-15T07:24:29.400Z,85.77
2023-04-15T07:25:29.406Z,84.94
2023-04-15T07:26:29.375Z,84.43
2023-04-15T07:27:29.383Z,84.33
2023-04-15T07:28:29.366Z,84.33
2023-04-15T07:29:29.370Z,84.22
2023-04-15T07:30:29.343Z,83.91
2023-04-15T07:31:29.458Z,83.29
2023-04-15T07:32:29.374Z,83.40
2023-04-15T07:33:29.328Z,83.50
2023-04-15T07:34:30.811Z,83.26
2023-04-15T07:35:29.296Z,83.47
2023-04-15T07:36:29.293Z,83.77
2023-04-15T07:37:29.272Z,83.77
2023-04-15T07:38:29.270Z,83.05
2023-04-15T07:39:29.264Z,82.84
2023-04-15T07:40:29.300Z,83.05
2023-04-15T07:41:29.249Z,82.84
2023-04-15T07:42:29.262Z,82.54
2023-04-15T07:43:29.263Z,82.43
2023-04-15T07:44:29.199Z,82.74
2023-04-15T07:45:29.246Z,82.95
2023-04-15T07:46:29.220Z,83.12
2023-04-15T07:47:29.201Z,83.12
2023-04-15T07:48:29.173Z,83.12
2023-04-15T07:49:29.154Z,82.60
2023-04-15T07:50:29.158Z,82.70
2023-04-15T07:51:29.170Z,82.81
2023-04-15T07:52:29.136Z,82.40
2023-04-15T07:53:29.118Z,82.70
2023-04-15T07:54:29.103Z,82.81
2023-04-15T07:55:29.110Z,82.91
2023-04-15T07:56:29.125Z,82.91
2023-04-15T07:57:29.087Z,82.09
2023-04-15T07:58:29.079Z,82.29
2023-04-15T07:59:29.065Z,82.70
2023-04-15T08:00:29.060Z,82.81
2023-04-15T08:01:29.046Z,83.32
2023-04-15T08:02:29.193Z,83.42
2023-04-15T08:03:29.153Z,83.94
2023-04-15T08:04:29.155Z,83.94
2023-04-15T08:05:29.009Z,83.84
2023-04-15T08:06:28.980Z,84.00
2023-04-15T08:07:28.975Z,84.00
2023-04-15T08:08:28.982Z,84.87
2023-04-15T08:09:28.959Z,84.21
2023-04-15T08:10:28.961Z,84.11
2023-04-15T08:11:28.957Z,84.00
2023-04-15T08:12:28.927Z,84.62
2023-04-15T08:13:28.951Z,85.34
2023-04-15T08:14:28.925Z,86.06
2023-04-15T08:15:28.911Z,86.37
2023-04-15T08:16:28.919Z,86.27
2023-04-15T08:17:28.889Z,85.44
2023-04-15T08:18:28.863Z,85.44
2023-04-15T08:19:28.909Z,85.55
2023-04-15T08:20:28.846Z,85.17
2023-04-15T08:21:28.837Z,85.75
2023-04-15T08:22:28.830Z,85.86
2023-04-15T08:23:28.830Z,86.31
2023-04-15T08:24:28.834Z,85.89
2023-04-15T08:25:28.807Z,85.07
2023-04-15T08:26:28.817Z,84.77
2023-04-15T08:27:28.775Z,85.28
2023-04-15T08:28:28.778Z,85.49
2023-04-15T08:29:28.775Z,84.97
2023-04-15T08:30:28.751Z,85.28
2023-04-15T08:31:28.810Z,85.07
2023-04-15T08:32:28.732Z,85.07
2023-04-15T08:33:28.741Z,86.00
2023-04-15T08:34:28.711Z,85.22
2023-04-15T08:35:28.709Z,83.98
2023-04-15T08:36:28.713Z,84.39
2023-04-15T08:37:28.685Z,84.70
2023-04-15T08:38:28.680Z,84.29
2023-04-15T08:39:28.656Z,84.80
2023-04-15T08:40:28.647Z,84.80
2023-04-15T08:41:28.648Z,84.91
2023-04-15T08:42:28.660Z,84.74
2023-04-15T08:43:28.618Z,84.12
2023-04-15T08:44:28.602Z,84.33
2023-04-15T08:45:28.595Z,83.81
2023-04-15T08:46:28.609Z,83.71
2023-04-15T08:47:28.644Z,84.43
2023-04-15T08:48:28.553Z,84.43
2023-04-15T08:49:28.561Z,86.49
2023-04-15T08:50:28.545Z,86.60
2023-04-15T08:51:28.550Z,87.21
2023-04-15T08:52:28.572Z,86.39
2023-04-15T08:53:28.521Z,86.70
2023-04-15T08:54:28.505Z,87.42
2023-04-15T08:55:28.487Z,87.11
2023-04-15T08:56:28.489Z,87.63
2023-04-15T08:57:28.469Z,87.93
2023-04-15T08:58:28.470Z,88.51
2023-04-15T08:59:28.465Z,88.51
2023-04-15T09:00:28.457Z,88.20
2023-04-15T09:01:28.478Z,88.72
2023-04-15T09:02:28.506Z,87.99
2023-04-15T09:03:28.544Z,88.31
2023-04-15T09:04:28.403Z,89.13
2023-04-15T09:05:28.395Z,89.95
2023-04-15T09:06:28.381Z,89.50
2023-04-15T09:07:28.366Z,89.50
2023-04-15T09:08:28.355Z,88.57
2023-04-15T09:09:28.387Z,89.40
2023-04-15T09:10:28.340Z,88.57
2023-04-15T09:11:28.337Z,89.50
2023-04-15T09:12:28.330Z,88.57
2023-04-15T09:13:28.314Z,87.85
2023-04-15T09:14:28.305Z,87.34
2023-04-15T09:15:28.318Z,86.52
2023-04-15T09:16:28.327Z,87.65
2023-04-15T09:17:28.304Z,88.84
2023-04-15T09:18:28.280Z,88.64
2023-04-15T09:19:28.263Z,88.33
2023-04-15T09:20:28.276Z,88.33
2023-04-15T09:21:28.237Z,88.12
2023-04-15T09:22:28.233Z,88.53
2023-04-15T09:23:28.204Z,89.46
2023-04-15T09:24:28.186Z,88.84
2023-04-15T09:25:28.202Z,88.33
2023-04-15T09:26:28.196Z,88.23
2023-04-15T09:27:28.191Z,88.64
2023-04-15T09:28:28.167Z,86.88
2023-04-15T09:29:28.187Z,87.15
2023-04-15T09:30:28.144Z,87.15
2023-04-15T09:31:28.233Z,87.98
2023-04-15T09:32:28.125Z,86.85
2023-04-15T09:33:28.106Z,85.92
2023-04-15T09:34:28.086Z,85.71
2023-04-15T09:35:28.140Z,85.20
2023-04-15T09:36:28.084Z,85.51
2023-04-15T09:37:32.304Z,85.92
2023-04-15T09:38:28.051Z,85.92
2023-04-15T09:39:28.057Z,85.51
2023-04-15T09:40:28.050Z,85.41
2023-04-15T09:41:28.029Z,85.10
2023-04-15T09:42:28.060Z,85.61
2023-04-15T09:43:28.008Z,85.61
2023-04-15T09:44:28.031Z,85.82
2023-04-15T09:45:29.693Z,85.82
2023-04-15T09:46:28.014Z,86.43
2023-04-15T09:47:28.019Z,87.15
2023-04-15T09:48:27.948Z,87.57
2023-04-15T09:49:27.965Z,86.13
2023-04-15T09:50:27.954Z,85.51
2023-04-15T09:51:27.910Z,85.82
2023-04-15T09:52:27.931Z,85.10
2023-04-15T09:53:29.762Z,85.82
2023-04-15T09:54:27.892Z,86.64
2023-04-15T09:55:27.950Z,85.82
2023-04-15T09:56:27.878Z,86.43
2023-04-15T09:57:27.880Z,87.46
2023-04-15T09:58:27.867Z,87.98
2023-04-15T09:59:27.841Z,87.46
2023-04-15T10:00:27.828Z,87.40
2023-04-15T10:01:27.924Z,87.30
2023-04-15T10:02:27.856Z,87.36
2023-04-15T10:03:27.939Z,88.12
2023-04-15T10:04:27.899Z,88.64
2023-04-15T10:05:28.676Z,88.02
2023-04-15T10:06:27.811Z,86.79
2023-04-15T10:07:27.767Z,87.30
2023-04-15T10:08:27.774Z,87.60
2023-04-15T10:09:27.756Z,88.02
2023-04-15T10:10:27.788Z,88.33
2023-04-15T10:11:29.166Z,88.23
2023-04-15T10:12:27.718Z,88.64
2023-04-15T10:13:27.700Z,87.30
2023-04-15T10:14:27.702Z,87.51
2023-04-15T10:15:27.684Z,87.51
2023-04-15T10:16:27.876Z,86.58
2023-04-15T10:17:28.460Z,86.68
2023-04-15T10:18:27.656Z,86.47
2023-04-15T10:19:27.662Z,87.60
2023-04-15T10:20:27.655Z,87.40
2023-04-15T10:21:27.636Z,86.88
2023-04-15T10:22:27.671Z,86.99
2023-04-15T10:23:27.619Z,87.92
2023-04-15T10:24:27.611Z,88.43
2023-04-15T10:25:27.615Z,88.43
2023-04-15T10:26:27.585Z,87.51
2023-04-15T10:27:27.558Z,87.71
2023-04-15T10:28:27.572Z,88.12
2023-04-15T10:29:27.532Z,88.53
2023-04-15T10:30:27.538Z,89.15
2023-04-15T10:31:27.590Z,89.05
2023-04-15T10:32:27.549Z,89.50
2023-04-15T10:33:27.507Z,89.09
2023-04-15T10:34:27.506Z,89.29
2023-04-15T10:35:27.487Z,89.19
2023-04-15T10:36:27.481Z,88.57
2023-04-15T10:37:27.471Z,88.47
2023-04-15T10:38:27.455Z,88.99
2023-04-15T10:39:27.436Z,88.47
2023-04-15T10:40:27.467Z,88.68
2023-04-15T10:41:27.414Z,88.57
2023-04-15T10:42:27.462Z,88.06
2023-04-15T10:43:27.415Z,88.64
2023-04-15T10:44:27.398Z,88.43
2023-04-15T10:45:27.395Z,88.33
2023-04-15T10:46:27.472Z,87.81
2023-04-15T10:47:27.387Z,87.60
2023-04-15T10:48:27.388Z,87.60
2023-04-15T10:49:27.339Z,87.60
2023-04-15T10:50:27.362Z,87.92
2023-04-15T10:51:27.310Z,88.64
2023-04-15T10:52:27.310Z,88.84
2023-04-15T10:53:27.299Z,89.25
2023-04-15T10:54:27.287Z,89.67
2023-04-15T10:55:27.307Z,88.95
2023-04-15T10:56:27.271Z,88.70
2023-04-15T10:57:27.257Z,89.01
2023-04-15T10:58:27.269Z,88.39
2023-04-15T10:59:27.252Z,88.29
2023-04-15T11:00:27.235Z,88.64
2023-04-15T11:01:27.268Z,89.31
2023-04-15T11:02:27.392Z,89.52
2023-04-15T11:03:27.377Z,89.01
2023-04-15T11:04:27.365Z,88.18
2023-04-15T11:05:27.196Z,88.29
2023-04-15T11:06:27.201Z,88.39
2023-04-15T11:07:27.179Z,88.39
2023-04-15T11:08:27.158Z,88.90
2023-04-15T11:09:27.155Z,88.80
2023-04-15T11:10:27.130Z,87.67
2023-04-15T11:11:27.129Z,87.46
2023-04-15T11:12:27.101Z,87.87
2023-04-15T11:13:27.160Z,86.33
2023-04-15T11:14:27.077Z,86.85
2023-04-15T11:15:27.076Z,88.49
2023-04-15T11:16:27.108Z,88.49
2023-04-15T11:17:27.152Z,88.70
2023-04-15T11:18:27.081Z,89.11
2023-04-15T11:19:27.036Z,88.90
2023-04-15T11:20:27.096Z,88.59
2023-04-15T11:21:27.021Z,88.08
2023-04-15T11:22:27.008Z,87.57
2023-04-15T11:23:27.009Z,87.57
2023-04-15T11:24:27.062Z,87.94
2023-04-15T11:25:27.013Z,88.35
2023-04-15T11:26:26.953Z,88.45
2023-04-15T11:27:26.953Z,88.76
2023-04-15T11:28:26.928Z,89.17
2023-04-15T11:29:26.969Z,89.28
2023-04-15T11:30:26.924Z,88.24
2023-04-15T11:31:26.937Z,87.94
2023-04-15T11:32:26.949Z,87.84
2023-04-15T11:33:26.902Z,87.84
2023-04-15T11:34:26.925Z,88.14
2023-04-15T11:35:26.878Z,88.35
2023-04-15T11:36:26.879Z,87.84
2023-04-15T11:37:26.851Z,87.52
2023-04-15T11:38:26.847Z,87.94
2023-04-15T11:39:26.838Z,87.84
2023-04-15T11:40:27.131Z,87.94
2023-04-15T11:41:26.865Z,87.94
2023-04-15T11:42:31.447Z,88.04
2023-04-15T11:43:26.809Z,88.24
2023-04-15T11:44:26.788Z,88.45
2023-04-15T11:45:26.829Z,89.07
2023-04-15T11:46:26.816Z,88.76
2023-04-15T11:47:26.783Z,87.63
2023-04-15T11:48:26.768Z,87.84
2023-04-15T11:49:26.745Z,88.04
2023-04-15T11:50:26.741Z,88.35
2023-04-15T11:51:26.720Z,88.76
2023-04-15T11:52:26.735Z,89.17
2023-04-15T11:53:26.698Z,89.34
2023-04-15T11:54:26.698Z,88.56
2023-04-15T11:55:26.675Z,88.56
2023-04-15T11:56:26.653Z,88.45
2023-04-15T11:57:26.678Z,88.35
2023-04-15T11:58:26.632Z,88.41
2023-04-15T11:59:35.666Z,88.10
2023-04-15T12:00:26.615Z,88.00
2023-04-15T12:01:26.612Z,87.38
2023-04-15T12:02:26.787Z,87.49
2023-04-15T12:03:26.755Z,88.41
2023-04-15T12:04:26.802Z,88.51
2023-04-15T12:05:26.593Z,88.51
2023-04-15T12:06:26.559Z,88.31
2023-04-15T12:07:26.545Z,88.10
2023-04-15T12:08:26.523Z,88.00
2023-04-15T12:09:26.519Z,87.49
2023-04-15T12:10:26.515Z,87.69
2023-04-15T12:11:26.537Z,88.00
2023-04-15T12:12:26.503Z,88.10
2023-04-15T12:13:26.496Z,88.92
2023-04-15T12:14:26.519Z,89.34
2023-04-15T12:15:26.462Z,88.31
2023-04-15T12:16:26.462Z,87.69
2023-04-15T12:17:26.491Z,87.85
2023-04-15T12:18:26.445Z,88.47
2023-04-15T12:19:26.432Z,88.57
2023-04-15T12:20:26.421Z,89.19
2023-04-15T12:21:26.405Z,89.50
2023-04-15T12:22:26.457Z,89.29
2023-04-15T12:23:26.381Z,89.60
2023-04-15T12:24:26.367Z,89.66
2023-04-15T12:25:26.375Z,87.75
2023-04-15T12:26:26.357Z,87.40
2023-04-15T12:27:27.654Z,87.45
2023-04-15T12:28:26.341Z,86.89
2023-04-15T12:29:26.335Z,87.04
2023-04-15T12:30:26.339Z,87.61
2023-04-15T12:31:26.387Z,87.30
2023-04-15T12:32:26.326Z,86.89
2023-04-15T12:33:26.285Z,85.90
2023-04-15T12:34:26.292Z,86.42
2023-04-15T12:35:26.254Z,86.42
2023-04-15T12:36:26.288Z,86.42
2023-04-15T12:37:26.243Z,86.93
2023-04-15T12:38:26.231Z,87.45
2023-04-15T12:39:27.174Z,88.06
2023-04-15T12:40:26.231Z,87.34
2023-04-15T12:41:26.225Z,87.75
2023-04-15T12:42:26.235Z,87.85
2023-04-15T12:43:26.183Z,87.92
2023-04-15T12:44:26.207Z,87.40
2023-04-15T12:45:26.876Z,87.30
2023-04-15T12:46:26.181Z,87.10
2023-04-15T12:47:26.145Z,87.40
2023-04-15T12:48:26.144Z,86.48
2023-04-15T12:49:26.144Z,86.48
2023-04-15T12:50:26.122Z,86.79
2023-04-15T12:51:26.112Z,86.38
2023-04-15T12:52:26.110Z,86.99